Agoura Hills, California
Current Conditions -  °F | °C
As of 1:51 AM on Sunday 25 Jan 2015 (Local Time) from KVNY Reporting Station
Clear Clear  
Wind Chill: 12°   Ceiling: Unl
Heat Index: 12°   Visibility: 10mi
Dew Point: -3°   Wind: 0mph
Humidity: 35%   Direction: NA
Pressure: 30.04"   Gusts: NA
Location:  34.15°N, 118.77°W
Report Text: KVNY 250951Z AUTO 00000KT 10SM CLR 12/M03 A3004 RMK AO2 SLP167 T01221028
Loading
Personal Weather Stations






























Interactive Weather Map New forecast layout! Learn more

10-Day Weather Forecast

Advertisements
Track Severe Weather on mobile